sensor_id;sensor_type;location;lat;lon;timestamp;pressure;altitude;pressure_sealevel;temperature;humidity
54588;BME280;40484;50.198;19.576;2023-04-29T00:00:48;101475.80;;;13.20;36.06
54588;BME280;40484;50.198;19.576;2023-04-29T00:08:45;101474.95;;;13.03;36.52
54588;BME280;40484;50.198;19.576;2023-04-29T00:13:46;101467.84;;;13.10;36.79
54588;BME280;40484;50.198;19.576;2023-04-29T00:18:47;101472.25;;;13.01;37.15
54588;BME280;40484;50.198;19.576;2023-04-29T00:23:49;101471.41;;;12.98;37.28
54588;BME280;40484;50.198;19.576;2023-04-29T00:28:51;101471.19;;;12.94;37.51
54588;BME280;40484;50.198;19.576;2023-04-29T00:33:52;101471.82;;;12.93;37.86
54588;BME280;40484;50.198;19.576;2023-04-29T00:38:54;101469.30;;;13.06;38.35
54588;BME280;40484;50.198;19.576;2023-04-29T00:43:55;101467.84;;;13.22;38.52
54588;BME280;40484;50.198;19.576;2023-04-29T00:48:57;101465.56;;;13.34;38.56
54588;BME280;40484;50.198;19.576;2023-04-29T00:53:58;101460.31;;;13.50;38.53
54588;BME280;40484;50.198;19.576;2023-04-29T00:59:01;101457.79;;;13.64;38.63
54588;BME280;40484;50.198;19.576;2023-04-29T01:04:04;101457.14;;;13.68;38.91
54588;BME280;40484;50.198;19.576;2023-04-29T01:09:28;101450.21;;;13.79;38.96
54588;BME280;40484;50.198;19.576;2023-04-29T01:14:29;101443.71;;;13.91;39.17
54588;BME280;40484;50.198;19.576;2023-04-29T01:19:43;101447.80;;;14.06;39.45
54588;BME280;40484;50.198;19.576;2023-04-29T01:25:08;101447.53;;;14.23;39.60
54588;BME280;40484;50.198;19.576;2023-04-29T01:30:31;101444.77;;;14.31;39.22
54588;BME280;40484;50.198;19.576;2023-04-29T01:40:43;101444.68;;;14.47;38.96
54588;BME280;40484;50.198;19.576;2023-04-29T01:45:44;101438.98;;;14.59;38.67
54588;BME280;40484;50.198;19.576;2023-04-29T01:50:46;101437.27;;;14.63;38.81
54588;BME280;40484;50.198;19.576;2023-04-29T01:55:47;101426.82;;;14.60;39.31
54588;BME280;40484;50.198;19.576;2023-04-29T02:00:49;101431.26;;;14.57;39.61
54588;BME280;40484;50.198;19.576;2023-04-29T02:05:50;101431.05;;;14.52;39.74
54588;BME280;40484;50.198;19.576;2023-04-29T02:10:57;101434.25;;;14.39;40.00
54588;BME280;40484;50.198;19.576;2023-04-29T02:16:09;101423.95;;;14.48;40.07
54588;BME280;40484;50.198;19.576;2023-04-29T02:21:11;101423.48;;;14.58;40.08
54588;BME280;40484;50.198;19.576;2023-04-29T02:26:13;101427.88;;;14.62;40.30
54588;BME280;40484;50.198;19.576;2023-04-29T02:31:15;101429.68;;;14.69;40.23
54588;BME280;40484;50.198;19.576;2023-04-29T02:36:41;101427.47;;;14.86;40.33
54588;BME280;40484;50.198;19.576;2023-04-29T02:41:42;101420.58;;;14.82;40.32
54588;BME280;40484;50.198;19.576;2023-04-29T02:46:44;101418.23;;;14.89;40.07
54588;BME280;40484;50.198;19.576;2023-04-29T02:51:46;101412.26;;;15.02;39.71
54588;BME280;40484;50.198;19.576;2023-04-29T02:56:49;101411.34;;;15.10;39.40
54588;BME280;40484;50.198;19.576;2023-04-29T03:01:51;101408.14;;;15.18;39.11
54588;BME280;40484;50.198;19.576;2023-04-29T03:06:54;101409.99;;;15.20;39.14
54588;BME280;40484;50.198;19.576;2023-04-29T03:11:56;101406.68;;;15.18;39.10
54588;BME280;40484;50.198;19.576;2023-04-29T03:16:58;101392.62;;;15.19;39.18
54588;BME280;40484;50.198;19.576;2023-04-29T03:21:59;101399.98;;;15.14;39.38
54588;BME280;40484;50.198;19.576;2023-04-29T03:27:01;101395.81;;;15.15;39.36
54588;BME280;40484;50.198;19.576;2023-04-29T03:32:03;101393.21;;;15.22;39.44
54588;BME280;40484;50.198;19.576;2023-04-29T03:37:05;101397.15;;;15.27;39.44
54588;BME280;40484;50.198;19.576;2023-04-29T03:42:06;101403.10;;;15.18;39.59
54588;BME280;40484;50.198;19.576;2023-04-29T03:47:08;101403.71;;;14.99;39.74
54588;BME280;40484;50.198;19.576;2023-04-29T03:52:09;101398.65;;;15.03;39.39
54588;BME280;40484;50.198;19.576;2023-04-29T03:57:12;101395.86;;;15.08;39.69
54588;BME280;40484;50.198;19.576;2023-04-29T04:02:13;101402.36;;;15.09;39.85
54588;BME280;40484;50.198;19.576;2023-04-29T04:07:15;101405.73;;;15.30;39.71
54588;BME280;40484;50.198;19.576;2023-04-29T04:12:17;101404.35;;;15.40;39.75
54588;BME280;40484;50.198;19.576;2023-04-29T04:17:18;101406.00;;;15.41;39.73
54588;BME280;40484;50.198;19.576;2023-04-29T04:22:45;101401.65;;;15.56;39.60
54588;BME280;40484;50.198;19.576;2023-04-29T04:27:46;101405.81;;;15.59;39.52
54588;BME280;40484;50.198;19.576;2023-04-29T04:32:48;101405.03;;;15.55;39.61
54588;BME280;40484;50.198;19.576;2023-04-29T04:37:49;101395.32;;;15.60;39.65
54588;BME280;40484;50.198;19.576;2023-04-29T04:42:51;101396.09;;;15.65;39.77
54588;BME280;40484;50.198;19.576;2023-04-29T04:47:52;101402.30;;;15.75;39.92
54588;BME280;40484;50.198;19.576;2023-04-29T04:52:55;101400.55;;;15.81;40.35
54588;BME280;40484;50.198;19.576;2023-04-29T04:57:56;101397.09;;;15.88;40.55
54588;BME280;40484;50.198;19.576;2023-04-29T05:02:58;101385.98;;;15.89;40.94
54588;BME280;40484;50.198;19.576;2023-04-29T05:08:00;101388.76;;;15.84;41.65
54588;BME280;40484;50.198;19.576;2023-04-29T05:13:01;101398.62;;;15.82;41.93
54588;BME280;40484;50.198;19.576;2023-04-29T05:18:03;101398.85;;;15.82;42.61
54588;BME280;40484;50.198;19.576;2023-04-29T05:23:04;101393.38;;;15.84;42.71
54588;BME280;40484;50.198;19.576;2023-04-29T05:28:06;101397.84;;;15.78;42.90
54588;BME280;40484;50.198;19.576;2023-04-29T05:33:07;101400.95;;;15.83;42.66
54588;BME280;40484;50.198;19.576;2023-04-29T05:38:09;101400.02;;;15.72;42.66
54588;BME280;40484;50.198;19.576;2023-04-29T05:43:10;101401.09;;;15.67;43.00
54588;BME280;40484;50.198;19.576;2023-04-29T05:48:12;101402.58;;;15.70;42.91
54588;BME280;40484;50.198;19.576;2023-04-29T05:53:14;101411.91;;;15.77;42.92
54588;BME280;40484;50.198;19.576;2023-04-29T05:58:15;101408.95;;;15.79;43.41
54588;BME280;40484;50.198;19.576;2023-04-29T06:03:17;101414.06;;;15.88;43.60
54588;BME280;40484;50.198;19.576;2023-04-29T06:08:19;101408.55;;;15.94;44.21
54588;BME280;40484;50.198;19.576;2023-04-29T06:13:45;101405.31;;;16.02;44.15
54588;BME280;40484;50.198;19.576;2023-04-29T06:18:46;101402.85;;;15.97;44.41
54588;BME280;40484;50.198;19.576;2023-04-29T06:23:48;101400.56;;;15.96;44.88
54588;BME280;40484;50.198;19.576;2023-04-29T06:28:49;101404.12;;;15.80;45.26
54588;BME280;40484;50.198;19.576;2023-04-29T06:33:51;101405.59;;;15.78;45.66
54588;BME280;40484;50.198;19.576;2023-04-29T06:38:53;101404.00;;;15.89;45.95
54588;BME280;40484;50.198;19.576;2023-04-29T06:43:55;101399.96;;;15.78;46.49
54588;BME280;40484;50.198;19.576;2023-04-29T06:48:56;101399.50;;;15.79;46.81
54588;BME280;40484;50.198;19.576;2023-04-29T06:53:58;101395.66;;;15.71;46.93
54588;BME280;40484;50.198;19.576;2023-04-29T06:59:00;101399.14;;;15.75;46.95
54588;BME280;40484;50.198;19.576;2023-04-29T07:04:01;101401.32;;;15.87;46.92
54588;BME280;40484;50.198;19.576;2023-04-29T07:09:03;101393.02;;;15.61;46.74
54588;BME280;40484;50.198;19.576;2023-04-29T07:14:04;101396.15;;;15.81;46.49
54588;BME280;40484;50.198;19.576;2023-04-29T07:19:07;101401.55;;;16.01;46.18
54588;BME280;40484;50.198;19.576;2023-04-29T07:24:08;101401.09;;;16.18;46.17
54588;BME280;40484;50.198;19.576;2023-04-29T07:29:09;101405.39;;;16.25;45.98
54588;BME280;40484;50.198;19.576;2023-04-29T07:34:11;101409.26;;;16.34;45.92
54588;BME280;40484;50.198;19.576;2023-04-29T07:39:13;101419.46;;;16.39;45.91
54588;BME280;40484;50.198;19.576;2023-04-29T07:44:16;101416.36;;;16.50;45.63
54588;BME280;40484;50.198;19.576;2023-04-29T07:49:17;101413.88;;;16.48;45.57
54588;BME280;40484;50.198;19.576;2023-04-29T07:54:19;101413.61;;;16.37;45.88
54588;BME280;40484;50.198;19.576;2023-04-29T07:59:20;101412.64;;;16.48;45.50
54588;BME280;40484;50.198;19.576;2023-04-29T08:04:46;101419.20;;;16.57;45.45
54588;BME280;40484;50.198;19.576;2023-04-29T08:09:47;101424.30;;;16.67;45.30
54588;BME280;40484;50.198;19.576;2023-04-29T08:14:49;101433.15;;;16.78;44.99
54588;BME280;40484;50.198;19.576;2023-04-29T08:19:50;101424.66;;;16.84;44.84
54588;BME280;40484;50.198;19.576;2023-04-29T08:24:52;101424.33;;;16.92;44.72
54588;BME280;40484;50.198;19.576;2023-04-29T08:29:53;101426.35;;;16.85;45.08
54588;BME280;40484;50.198;19.576;2023-04-29T08:34:56;101426.65;;;16.91;45.19
54588;BME280;40484;50.198;19.576;2023-04-29T08:39:57;101421.58;;;16.93;45.36
54588;BME280;40484;50.198;19.576;2023-04-29T08:44:59;101429.88;;;16.86;45.33
54588;BME280;40484;50.198;19.576;2023-04-29T08:50:02;101429.91;;;16.96;45.29
54588;BME280;40484;50.198;19.576;2023-04-29T08:55:05;101425.84;;;17.02;45.43
54588;BME280;40484;50.198;19.576;2023-04-29T09:00:08;101438.05;;;17.12;45.60
54588;BME280;40484;50.198;19.576;2023-04-29T09:05:10;101434.88;;;16.89;45.73
54588;BME280;40484;50.198;19.576;2023-04-29T09:10:12;101433.30;;;16.68;46.06
54588;BME280;40484;50.198;19.576;2023-04-29T09:15:15;101421.63;;;16.91;46.45
54588;BME280;40484;50.198;19.576;2023-04-29T09:25:23;101424.23;;;17.23;46.17
54588;BME280;40484;50.198;19.576;2023-04-29T09:30:27;101422.01;;;17.05;46.17
54588;BME280;40484;50.198;19.576;2023-04-29T09:35:29;101414.44;;;17.06;46.28
54588;BME280;40484;50.198;19.576;2023-04-29T09:40:58;101421.52;;;17.10;46.29
54588;BME280;40484;50.198;19.576;2023-04-29T09:46:00;101410.00;;;17.19;46.50
54588;BME280;40484;50.198;19.576;2023-04-29T09:51:02;101407.56;;;17.26;46.84
54588;BME280;40484;50.198;19.576;2023-04-29T09:56:03;101406.52;;;17.36;46.95
54588;BME280;40484;50.198;19.576;2023-04-29T10:01:06;101409.38;;;17.42;47.06
54588;BME280;40484;50.198;19.576;2023-04-29T10:06:08;101408.09;;;17.64;46.99
54588;BME280;40484;50.198;19.576;2023-04-29T10:11:10;101401.59;;;17.75;45.85
54588;BME280;40484;50.198;19.576;2023-04-29T10:21:28;101378.58;;;18.18;45.79
54588;BME280;40484;50.198;19.576;2023-04-29T10:26:32;101380.52;;;18.16;45.62
54588;BME280;40484;50.198;19.576;2023-04-29T10:31:35;101381.47;;;18.48;45.04
54588;BME280;40484;50.198;19.576;2023-04-29T10:36:38;101385.77;;;18.79;43.98
54588;BME280;40484;50.198;19.576;2023-04-29T10:41:44;101375.36;;;18.91;41.50
54588;BME280;40484;50.198;19.576;2023-04-29T10:46:47;101378.55;;;18.74;42.08
54588;BME280;40484;50.198;19.576;2023-04-29T10:51:48;101385.45;;;18.75;40.70
54588;BME280;40484;50.198;19.576;2023-04-29T10:56:51;101386.76;;;18.74;40.17
54588;BME280;40484;50.198;19.576;2023-04-29T11:01:53;101384.29;;;18.53;40.51
54588;BME280;40484;50.198;19.576;2023-04-29T11:07:26;101374.98;;;18.36;41.09
54588;BME280;40484;50.198;19.576;2023-04-29T11:12:28;101366.76;;;18.72;41.08
54588;BME280;40484;50.198;19.576;2023-04-29T11:17:36;101372.43;;;18.99;40.79
54588;BME280;40484;50.198;19.576;2023-04-29T11:22:38;101373.24;;;18.75;41.38
54588;BME280;40484;50.198;19.576;2023-04-29T11:27:40;101378.20;;;19.05;41.57
54588;BME280;40484;50.198;19.576;2023-04-29T11:32:43;101382.40;;;18.61;41.15
54588;BME280;40484;50.198;19.576;2023-04-29T11:37:45;101374.26;;;18.67;41.92
54588;BME280;40484;50.198;19.576;2023-04-29T11:42:48;101376.85;;;18.99;41.48
54588;BME280;40484;50.198;19.576;2023-04-29T11:47:50;101374.03;;;18.86;41.37
54588;BME280;40484;50.198;19.576;2023-04-29T11:52:51;101367.81;;;18.90;41.60
54588;BME280;40484;50.198;19.576;2023-04-29T11:57:53;101368.59;;;19.09;41.38
54588;BME280;40484;50.198;19.576;2023-04-29T12:02:54;101370.75;;;19.06;41.35
54588;BME280;40484;50.198;19.576;2023-04-29T12:07:56;101363.94;;;19.09;41.49
54588;BME280;40484;50.198;19.576;2023-04-29T12:12:57;101366.68;;;19.25;41.52
54588;BME280;40484;50.198;19.576;2023-04-29T12:18:00;101366.85;;;19.26;41.40
54588;BME280;40484;50.198;19.576;2023-04-29T12:23:12;101361.73;;;18.81;40.96
54588;BME280;40484;50.198;19.576;2023-04-29T12:28:14;101365.87;;;18.57;41.48
54588;BME280;40484;50.198;19.576;2023-04-29T12:33:44;101365.05;;;18.75;41.17
54588;BME280;40484;50.198;19.576;2023-04-29T12:38:46;101354.17;;;18.70;41.37
54588;BME280;40484;50.198;19.576;2023-04-29T12:43:49;101358.96;;;18.98;41.05
54588;BME280;40484;50.198;19.576;2023-04-29T12:48:52;101352.97;;;18.94;40.88
54588;BME280;40484;50.198;19.576;2023-04-29T12:53:54;101349.48;;;18.56;41.78
54588;BME280;40484;50.198;19.576;2023-04-29T12:58:55;101354.17;;;18.96;41.35
54588;BME280;40484;50.198;19.576;2023-04-29T13:03:57;101354.05;;;18.59;42.11
54588;BME280;40484;50.198;19.576;2023-04-29T13:08:58;101350.91;;;18.50;42.23
54588;BME280;40484;50.198;19.576;2023-04-29T13:14:00;101345.68;;;18.13;42.87
54588;BME280;40484;50.198;19.576;2023-04-29T13:19:02;101345.17;;;18.42;42.76
54588;BME280;40484;50.198;19.576;2023-04-29T13:24:03;101349.23;;;18.22;43.11
54588;BME280;40484;50.198;19.576;2023-04-29T13:29:05;101347.63;;;18.54;42.59
54588;BME280;40484;50.198;19.576;2023-04-29T13:34:07;101348.27;;;18.37;44.01
54588;BME280;40484;50.198;19.576;2023-04-29T13:39:09;101341.52;;;18.63;43.68
54588;BME280;40484;50.198;19.576;2023-04-29T13:44:10;101340.38;;;18.24;44.93
54588;BME280;40484;50.198;19.576;2023-04-29T13:49:11;101335.87;;;18.46;44.40
54588;BME280;40484;50.198;19.576;2023-04-29T13:54:13;101339.52;;;18.42;43.85
54588;BME280;40484;50.198;19.576;2023-04-29T13:59:14;101336.86;;;18.64;43.93
54588;BME280;40484;50.198;19.576;2023-04-29T14:04:16;101335.56;;;18.75;42.79
54588;BME280;40484;50.198;19.576;2023-04-29T14:09:18;101336.31;;;18.87;42.09
54588;BME280;40484;50.198;19.576;2023-04-29T14:14:20;101330.70;;;19.23;42.88
54588;BME280;40484;50.198;19.576;2023-04-29T14:19:46;101323.70;;;19.76;41.11
54588;BME280;40484;50.198;19.576;2023-04-29T14:24:47;101323.88;;;19.70;40.19
54588;BME280;40484;50.198;19.576;2023-04-29T14:29:49;101321.05;;;19.50;39.08
54588;BME280;40484;50.198;19.576;2023-04-29T14:34:50;101327.50;;;19.02;40.70
54588;BME280;40484;50.198;19.576;2023-04-29T14:39:52;101328.37;;;19.08;40.88
54588;BME280;40484;50.198;19.576;2023-04-29T14:44:53;101329.90;;;18.98;41.52
54588;BME280;40484;50.198;19.576;2023-04-29T14:49:55;101332.78;;;19.08;41.61
54588;BME280;40484;50.198;19.576;2023-04-29T14:54:56;101333.82;;;19.02;41.76
54588;BME280;40484;50.198;19.576;2023-04-29T14:59:58;101325.79;;;19.17;41.91
54588;BME280;40484;50.198;19.576;2023-04-29T15:04:59;101325.88;;;19.30;42.32
54588;BME280;40484;50.198;19.576;2023-04-29T15:10:03;101321.09;;;19.65;41.71
54588;BME280;40484;50.198;19.576;2023-04-29T15:15:07;101321.09;;;19.19;42.01
54588;BME280;40484;50.198;19.576;2023-04-29T15:20:09;101316.70;;;19.40;42.33
54588;BME280;40484;50.198;19.576;2023-04-29T15:25:11;101321.59;;;19.70;41.99
54588;BME280;40484;50.198;19.576;2023-04-29T15:30:13;101327.03;;;20.05;41.66
54588;BME280;40484;50.198;19.576;2023-04-29T15:35:14;101336.64;;;19.88;41.27
54588;BME280;40484;50.198;19.576;2023-04-29T15:40:16;101335.87;;;19.71;41.10
54588;BME280;40484;50.198;19.576;2023-04-29T15:45:17;101332.98;;;19.61;40.85
54588;BME280;40484;50.198;19.576;2023-04-29T15:50:19;101334.91;;;19.83;40.78
54588;BME280;40484;50.198;19.576;2023-04-29T15:55:21;101334.40;;;19.92;40.61
54588;BME280;40484;50.198;19.576;2023-04-29T16:00:23;101328.79;;;19.96;40.59
54588;BME280;40484;50.198;19.576;2023-04-29T16:05:50;101337.12;;;20.27;40.43
54588;BME280;40484;50.198;19.576;2023-04-29T16:10:51;101351.52;;;20.18;41.29
54588;BME280;40484;50.198;19.576;2023-04-29T16:15:53;101358.43;;;20.07;42.69
54588;BME280;40484;50.198;19.576;2023-04-29T16:20:55;101365.83;;;19.78;44.04
54588;BME280;40484;50.198;19.576;2023-04-29T16:25:57;101391.09;;;18.58;48.01
54588;BME280;40484;50.198;19.576;2023-04-29T16:30:58;101400.96;;;17.73;51.38
54588;BME280;40484;50.198;19.576;2023-04-29T16:36:00;101384.70;;;17.57;51.67
54588;BME280;40484;50.198;19.576;2023-04-29T16:41:02;101381.38;;;17.97;51.12
54588;BME280;40484;50.198;19.576;2023-04-29T16:46:04;101376.47;;;18.28;50.45
54588;BME280;40484;50.198;19.576;2023-04-29T16:51:06;101365.95;;;18.37;50.41
54588;BME280;40484;50.198;19.576;2023-04-29T16:56:08;101366.53;;;18.38;50.43
54588;BME280;40484;50.198;19.576;2023-04-29T17:01:09;101361.09;;;18.47;50.32
54588;BME280;40484;50.198;19.576;2023-04-29T17:06:12;101362.87;;;18.32;50.84
54588;BME280;40484;50.198;19.576;2023-04-29T17:11:14;101368.65;;;18.20;50.87
54588;BME280;40484;50.198;19.576;2023-04-29T17:16:18;101380.02;;;18.19;50.82
54588;BME280;40484;50.198;19.576;2023-04-29T17:21:19;101374.26;;;18.24;50.62
54588;BME280;40484;50.198;19.576;2023-04-29T17:26:25;101377.11;;;18.28;50.45
54588;BME280;40484;50.198;19.576;2023-04-29T17:31:27;101381.18;;;18.24;50.78
54588;BME280;40484;50.198;19.576;2023-04-29T17:36:30;101398.79;;;18.17;50.65
54588;BME280;40484;50.198;19.576;2023-04-29T17:41:33;101405.84;;;17.94;51.33
54588;BME280;40484;50.198;19.576;2023-04-29T17:46:58;101415.88;;;17.74;51.22
54588;BME280;40484;50.198;19.576;2023-04-29T17:52:00;101422.91;;;17.25;52.03
54588;BME280;40484;50.198;19.576;2023-04-29T17:57:03;101420.27;;;17.31;52.02
54588;BME280;40484;50.198;19.576;2023-04-29T18:02:05;101432.01;;;17.56;51.60
54588;BME280;40484;50.198;19.576;2023-04-29T18:07:07;101424.99;;;17.70;51.53
54588;BME280;40484;50.198;19.576;2023-04-29T18:12:08;101429.76;;;17.96;51.09
54588;BME280;40484;50.198;19.576;2023-04-29T18:17:10;101432.33;;;18.14;50.84
54588;BME280;40484;50.198;19.576;2023-04-29T18:22:11;101438.37;;;18.16;50.73
54588;BME280;40484;50.198;19.576;2023-04-29T18:27:13;101438.47;;;18.11;50.79
54588;BME280;40484;50.198;19.576;2023-04-29T18:32:14;101441.16;;;18.14;50.79
54588;BME280;40484;50.198;19.576;2023-04-29T18:37:15;101449.32;;;18.16;50.62
54588;BME280;40484;50.198;19.576;2023-04-29T18:42:17;101452.27;;;18.16;50.53
54588;BME280;40484;50.198;19.576;2023-04-29T18:47:18;101454.02;;;18.12;50.62
54588;BME280;40484;50.198;19.576;2023-04-29T18:52:20;101450.04;;;18.12;50.61
54588;BME280;40484;50.198;19.576;2023-04-29T18:57:21;101459.32;;;18.10;50.69
54588;BME280;40484;50.198;19.576;2023-04-29T19:02:23;101461.94;;;18.06;50.66
54588;BME280;40484;50.198;19.576;2023-04-29T19:07:24;101461.95;;;18.05;50.67
54588;BME280;40484;50.198;19.576;2023-04-29T19:12:26;101462.91;;;18.00;50.60
54588;BME280;40484;50.198;19.576;2023-04-29T19:17:27;101471.70;;;18.02;50.61
54588;BME280;40484;50.198;19.576;2023-04-29T19:22:29;101469.38;;;18.03;50.63
54588;BME280;40484;50.198;19.576;2023-04-29T19:27:31;101467.75;;;18.00;50.69
54588;BME280;40484;50.198;19.576;2023-04-29T19:32:33;101470.44;;;18.03;50.68
54588;BME280;40484;50.198;19.576;2023-04-29T19:37:58;101473.62;;;18.12;50.46
54588;BME280;40484;50.198;19.576;2023-04-29T19:43:00;101470.85;;;18.03;50.65
54588;BME280;40484;50.198;19.576;2023-04-29T19:48:01;101470.04;;;18.01;50.73
54588;BME280;40484;50.198;19.576;2023-04-29T19:53:03;101474.73;;;17.86;51.06
54588;BME280;40484;50.198;19.576;2023-04-29T19:58:05;101471.64;;;17.83;51.24
54588;BME280;40484;50.198;19.576;2023-04-29T20:03:06;101471.75;;;17.66;51.68
54588;BME280;40484;50.198;19.576;2023-04-29T20:08:08;101471.91;;;17.57;52.08
54588;BME280;40484;50.198;19.576;2023-04-29T20:13:09;101465.36;;;17.71;51.92
54588;BME280;40484;50.198;19.576;2023-04-29T20:18:11;101463.98;;;17.76;51.90
54588;BME280;40484;50.198;19.576;2023-04-29T20:23:12;101471.00;;;17.50;52.69
54588;BME280;40484;50.198;19.576;2023-04-29T20:28:14;101460.48;;;17.51;52.57
54588;BME280;40484;50.198;19.576;2023-04-29T20:33:15;101461.56;;;17.26;53.38
54588;BME280;40484;50.198;19.576;2023-04-29T20:38:18;101466.14;;;16.91;54.43
54588;BME280;40484;50.198;19.576;2023-04-29T20:43:19;101462.37;;;16.91;54.10
54588;BME280;40484;50.198;19.576;2023-04-29T20:48:21;101465.18;;;16.98;53.86
54588;BME280;40484;50.198;19.576;2023-04-29T20:53:22;101460.99;;;16.84;54.11
54588;BME280;40484;50.198;19.576;2023-04-29T20:58:24;101469.50;;;16.90;54.23
54588;BME280;40484;50.198;19.576;2023-04-29T21:03:25;101470.16;;;16.76;54.71
54588;BME280;40484;50.198;19.576;2023-04-29T21:08:27;101465.71;;;16.32;56.58
54588;BME280;40484;50.198;19.576;2023-04-29T21:13:28;101468.23;;;16.47;55.78
54588;BME280;40484;50.198;19.576;2023-04-29T21:18:30;101474.75;;;16.31;56.53
54588;BME280;40484;50.198;19.576;2023-04-29T21:23:32;101480.27;;;16.25;56.70
54588;BME280;40484;50.198;19.576;2023-04-29T21:28:58;101475.43;;;16.11;57.35
54588;BME280;40484;50.198;19.576;2023-04-29T21:34:00;101475.16;;;15.99;57.59
54588;BME280;40484;50.198;19.576;2023-04-29T21:39:01;101477.02;;;15.82;57.89
54588;BME280;40484;50.198;19.576;2023-04-29T21:44:03;101485.64;;;15.81;57.89
54588;BME280;40484;50.198;19.576;2023-04-29T21:49:05;101491.02;;;15.65;58.16
54588;BME280;40484;50.198;19.576;2023-04-29T21:54:07;101506.27;;;15.48;58.84
54588;BME280;40484;50.198;19.576;2023-04-29T21:59:09;101508.04;;;15.40;59.08
54588;BME280;40484;50.198;19.576;2023-04-29T22:04:10;101507.40;;;15.40;59.21
54588;BME280;40484;50.198;19.576;2023-04-29T22:09:12;101510.66;;;15.49;58.83
54588;BME280;40484;50.198;19.576;2023-04-29T22:14:13;101502.51;;;15.49;58.79
54588;BME280;40484;50.198;19.576;2023-04-29T22:19:15;101503.63;;;15.60;58.52
54588;BME280;40484;50.198;19.576;2023-04-29T22:24:16;101506.23;;;15.30;59.03
54588;BME280;40484;50.198;19.576;2023-04-29T22:29:18;101507.44;;;15.35;58.73
54588;BME280;40484;50.198;19.576;2023-04-29T22:34:20;101509.73;;;15.11;59.43
54588;BME280;40484;50.198;19.576;2023-04-29T22:39:22;101505.70;;;15.18;59.22
54588;BME280;40484;50.198;19.576;2023-04-29T22:44:23;101502.84;;;15.09;59.45
54588;BME280;40484;50.198;19.576;2023-04-29T22:49:26;101508.07;;;15.10;59.62
54588;BME280;40484;50.198;19.576;2023-04-29T22:54:27;101511.56;;;15.18;59.48
54588;BME280;40484;50.198;19.576;2023-04-29T22:59:29;101519.13;;;15.18;59.66
54588;BME280;40484;50.198;19.576;2023-04-29T23:04:30;101514.83;;;15.02;60.02
54588;BME280;40484;50.198;19.576;2023-04-29T23:09:33;101517.59;;;14.97;60.21
54588;BME280;40484;50.198;19.576;2023-04-29T23:14:34;101510.41;;;14.77;60.87
54588;BME280;40484;50.198;19.576;2023-04-29T23:20:00;101509.18;;;15.03;60.32
54588;BME280;40484;50.198;19.576;2023-04-29T23:25:02;101508.83;;;15.19;59.85
54588;BME280;40484;50.198;19.576;2023-04-29T23:30:03;101509.88;;;15.19;59.87
54588;BME280;40484;50.198;19.576;2023-04-29T23:35:06;101518.45;;;15.20;59.96
54588;BME280;40484;50.198;19.576;2023-04-29T23:40:08;101513.33;;;15.07;60.25
54588;BME280;40484;50.198;19.576;2023-04-29T23:45:09;101517.23;;;14.86;60.99
54588;BME280;40484;50.198;19.576;2023-04-29T23:50:11;101518.18;;;14.70;61.68
54588;BME280;40484;50.198;19.576;2023-04-29T23:55:12;101513.92;;;14.44;62.63
